sensor_id;sensor_type;location;lat;lon;timestamp;P1;durP1;ratioP1;P2;durP2;ratioP2
58689;SDS011;44470;53.206;-6.106;2023-01-19T00:01:21;1.00;;;1.00;;
58689;SDS011;44470;53.206;-6.106;2023-01-19T00:03:48;1.63;;;1.20;;
58689;SDS011;44470;53.206;-6.106;2023-01-19T00:06:13;1.15;;;1.15;;
58689;SDS011;44470;53.206;-6.106;2023-01-19T00:08:39;1.50;;;0.90;;
58689;SDS011;44470;53.206;-6.106;2023-01-19T00:11:05;1.50;;;1.40;;
58689;SDS011;44470;53.206;-6.106;2023-01-19T00:13:31;0.93;;;0.93;;
58689;SDS011;44470;53.206;-6.106;2023-01-19T00:15:56;1.00;;;0.95;;
58689;SDS011;44470;53.206;-6.106;2023-01-19T00:18:22;1.23;;;1.02;;
58689;SDS011;44470;53.206;-6.106;2023-01-19T00:20:48;1.40;;;1.30;;
58689;SDS011;44470;53.206;-6.106;2023-01-19T00:23:13;0.93;;;0.93;;
58689;SDS011;44470;53.206;-6.106;2023-01-19T00:25:40;1.00;;;1.00;;
58689;SDS011;44470;53.206;-6.106;2023-01-19T00:28:11;1.05;;;1.05;;
58689;SDS011;44470;53.206;-6.106;2023-01-19T00:30:38;1.38;;;1.10;;
58689;SDS011;44470;53.206;-6.106;2023-01-19T00:33:04;1.05;;;1.05;;
58689;SDS011;44470;53.206;-6.106;2023-01-19T00:35:30;1.90;;;1.30;;
58689;SDS011;44470;53.206;-6.106;2023-01-19T00:37:59;1.10;;;1.10;;
58689;SDS011;44470;53.206;-6.106;2023-01-19T00:40:25;1.75;;;0.93;;
58689;SDS011;44470;53.206;-6.106;2023-01-19T00:42:51;1.02;;;0.95;;
58689;SDS011;44470;53.206;-6.106;2023-01-19T00:45:18;1.00;;;0.88;;
58689;SDS011;44470;53.206;-6.106;2023-01-19T00:47:45;1.10;;;1.00;;
58689;SDS011;44470;53.206;-6.106;2023-01-19T00:50:12;0.93;;;0.90;;
58689;SDS011;44470;53.206;-6.106;2023-01-19T00:52:41;1.15;;;1.10;;
58689;SDS011;44470;53.206;-6.106;2023-01-19T00:55:08;1.30;;;1.20;;
58689;SDS011;44470;53.206;-6.106;2023-01-19T00:57:36;1.58;;;1.15;;
58689;SDS011;44470;53.206;-6.106;2023-01-19T01:00:03;1.35;;;1.00;;
58689;SDS011;44470;53.206;-6.106;2023-01-19T01:02:33;1.15;;;1.10;;
58689;SDS011;44470;53.206;-6.106;2023-01-19T01:04:59;0.93;;;0.93;;
58689;SDS011;44470;53.206;-6.106;2023-01-19T01:07:27;1.15;;;0.93;;
58689;SDS011;44470;53.206;-6.106;2023-01-19T01:09:54;1.60;;;0.90;;
58689;SDS011;44470;53.206;-6.106;2023-01-19T01:12:23;0.80;;;0.80;;
58689;SDS011;44470;53.206;-6.106;2023-01-19T01:14:49;1.20;;;1.10;;
58689;SDS011;44470;53.206;-6.106;2023-01-19T01:17:15;1.10;;;1.10;;
58689;SDS011;44470;53.206;-6.106;2023-01-19T01:19:41;0.70;;;0.70;;
58689;SDS011;44470;53.206;-6.106;2023-01-19T01:22:07;1.17;;;1.08;;
58689;SDS011;44470;53.206;-6.106;2023-01-19T01:24:33;1.00;;;1.00;;
58689;SDS011;44470;53.206;-6.106;2023-01-19T01:26:59;0.80;;;0.80;;
58689;SDS011;44470;53.206;-6.106;2023-01-19T01:29:24;0.90;;;0.90;;
58689;SDS011;44470;53.206;-6.106;2023-01-19T01:31:50;0.75;;;0.75;;
58689;SDS011;44470;53.206;-6.106;2023-01-19T01:34:16;0.75;;;0.75;;
58689;SDS011;44470;53.206;-6.106;2023-01-19T01:36:41;0.70;;;0.70;;
58689;SDS011;44470;53.206;-6.106;2023-01-19T01:39:07;0.50;;;0.50;;
58689;SDS011;44470;53.206;-6.106;2023-01-19T01:41:33;0.93;;;0.88;;
58689;SDS011;44470;53.206;-6.106;2023-01-19T01:43:58;1.27;;;0.90;;
58689;SDS011;44470;53.206;-6.106;2023-01-19T01:46:27;2.17;;;0.80;;
58689;SDS011;44470;53.206;-6.106;2023-01-19T01:49:09;1.50;;;0.70;;
58689;SDS011;44470;53.206;-6.106;2023-01-19T01:54:11;0.90;;;0.90;;
58689;SDS011;44470;53.206;-6.106;2023-01-19T01:56:54;0.93;;;0.70;;
58689;SDS011;44470;53.206;-6.106;2023-01-19T01:59:25;0.73;;;0.73;;
58689;SDS011;44470;53.206;-6.106;2023-01-19T02:02:02;0.80;;;0.80;;
58689;SDS011;44470;53.206;-6.106;2023-01-19T02:04:51;1.13;;;0.63;;
58689;SDS011;44470;53.206;-6.106;2023-01-19T02:07:25;0.50;;;0.50;;
58689;SDS011;44470;53.206;-6.106;2023-01-19T02:10:16;1.20;;;0.95;;
58689;SDS011;44470;53.206;-6.106;2023-01-19T02:13:01;0.65;;;0.65;;
58689;SDS011;44470;53.206;-6.106;2023-01-19T02:15:46;1.27;;;0.80;;
58689;SDS011;44470;53.206;-6.106;2023-01-19T02:18:12;0.60;;;0.60;;
58689;SDS011;44470;53.206;-6.106;2023-01-19T02:20:38;1.58;;;0.77;;
58689;SDS011;44470;53.206;-6.106;2023-01-19T02:23:07;0.80;;;0.80;;
58689;SDS011;44470;53.206;-6.106;2023-01-19T02:25:39;1.13;;;0.95;;
58689;SDS011;44470;53.206;-6.106;2023-01-19T02:28:05;0.75;;;0.50;;
58689;SDS011;44470;53.206;-6.106;2023-01-19T02:30:31;0.60;;;0.60;;
58689;SDS011;44470;53.206;-6.106;2023-01-19T02:32:57;0.55;;;0.52;;
58689;SDS011;44470;53.206;-6.106;2023-01-19T02:35:23;1.25;;;0.90;;
58689;SDS011;44470;53.206;-6.106;2023-01-19T02:37:50;1.15;;;0.80;;
58689;SDS011;44470;53.206;-6.106;2023-01-19T02:40:17;1.02;;;0.93;;
58689;SDS011;44470;53.206;-6.106;2023-01-19T02:42:47;0.60;;;0.60;;
58689;SDS011;44470;53.206;-6.106;2023-01-19T02:45:17;0.57;;;0.57;;
58689;SDS011;44470;53.206;-6.106;2023-01-19T02:47:47;0.90;;;0.60;;
58689;SDS011;44470;53.206;-6.106;2023-01-19T03:07:29;0.50;;;0.50;;
58689;SDS011;44470;53.206;-6.106;2023-01-19T03:10:11;0.30;;;0.30;;
58689;SDS011;44470;53.206;-6.106;2023-01-19T03:13:07;0.43;;;0.43;;
58689;SDS011;44470;53.206;-6.106;2023-01-19T03:15:44;0.43;;;0.43;;
58689;SDS011;44470;53.206;-6.106;2023-01-19T03:18:14;0.55;;;0.43;;
58689;SDS011;44470;53.206;-6.106;2023-01-19T03:20:44;0.57;;;0.57;;
58689;SDS011;44470;53.206;-6.106;2023-01-19T03:23:12;0.77;;;0.45;;
58689;SDS011;44470;53.206;-6.106;2023-01-19T03:25:43;0.40;;;0.40;;
58689;SDS011;44470;53.206;-6.106;2023-01-19T03:28:12;1.00;;;0.57;;
58689;SDS011;44470;53.206;-6.106;2023-01-19T03:30:43;0.70;;;0.40;;
58689;SDS011;44470;53.206;-6.106;2023-01-19T03:33:25;1.25;;;0.70;;
58689;SDS011;44470;53.206;-6.106;2023-01-19T03:35:58;0.47;;;0.47;;
58689;SDS011;44470;53.206;-6.106;2023-01-19T03:38:30;0.50;;;0.50;;
58689;SDS011;44470;53.206;-6.106;2023-01-19T03:41:00;0.65;;;0.40;;
58689;SDS011;44470;53.206;-6.106;2023-01-19T03:43:29;0.50;;;0.50;;
58689;SDS011;44470;53.206;-6.106;2023-01-19T03:45:56;0.60;;;0.60;;
58689;SDS011;44470;53.206;-6.106;2023-01-19T03:48:21;0.57;;;0.50;;
58689;SDS011;44470;53.206;-6.106;2023-01-19T03:50:47;0.73;;;0.60;;
58689;SDS011;44470;53.206;-6.106;2023-01-19T03:53:15;0.88;;;0.60;;
58689;SDS011;44470;53.206;-6.106;2023-01-19T03:55:42;0.80;;;0.70;;
58689;SDS011;44470;53.206;-6.106;2023-01-19T03:58:10;0.47;;;0.47;;
58689;SDS011;44470;53.206;-6.106;2023-01-19T04:00:36;0.95;;;0.52;;
58689;SDS011;44470;53.206;-6.106;2023-01-19T04:03:03;0.50;;;0.50;;
58689;SDS011;44470;53.206;-6.106;2023-01-19T04:05:29;0.40;;;0.40;;
58689;SDS011;44470;53.206;-6.106;2023-01-19T04:07:55;1.05;;;0.50;;
58689;SDS011;44470;53.206;-6.106;2023-01-19T04:10:21;0.55;;;0.55;;
58689;SDS011;44470;53.206;-6.106;2023-01-19T04:12:47;0.77;;;0.35;;
58689;SDS011;44470;53.206;-6.106;2023-01-19T04:15:13;0.43;;;0.43;;
58689;SDS011;44470;53.206;-6.106;2023-01-19T04:17:39;0.30;;;0.30;;
58689;SDS011;44470;53.206;-6.106;2023-01-19T04:20:06;0.75;;;0.50;;
58689;SDS011;44470;53.206;-6.106;2023-01-19T04:22:32;0.68;;;0.57;;
58689;SDS011;44470;53.206;-6.106;2023-01-19T04:24:58;0.68;;;0.40;;
58689;SDS011;44470;53.206;-6.106;2023-01-19T04:27:23;0.60;;;0.30;;
58689;SDS011;44470;53.206;-6.106;2023-01-19T04:29:50;1.20;;;0.40;;
58689;SDS011;44470;53.206;-6.106;2023-01-19T04:32:16;1.25;;;0.40;;
58689;SDS011;44470;53.206;-6.106;2023-01-19T04:34:41;0.90;;;0.40;;
58689;SDS011;44470;53.206;-6.106;2023-01-19T04:37:07;0.40;;;0.40;;
58689;SDS011;44470;53.206;-6.106;2023-01-19T04:39:33;0.35;;;0.35;;
58689;SDS011;44470;53.206;-6.106;2023-01-19T04:41:59;0.50;;;0.50;;
58689;SDS011;44470;53.206;-6.106;2023-01-19T04:44:25;0.70;;;0.65;;
58689;SDS011;44470;53.206;-6.106;2023-01-19T04:46:51;1.15;;;0.47;;
58689;SDS011;44470;53.206;-6.106;2023-01-19T04:49:18;0.45;;;0.43;;
58689;SDS011;44470;53.206;-6.106;2023-01-19T04:51:43;0.47;;;0.47;;
58689;SDS011;44470;53.206;-6.106;2023-01-19T04:54:09;0.50;;;0.50;;
58689;SDS011;44470;53.206;-6.106;2023-01-19T04:56:35;1.27;;;0.55;;
58689;SDS011;44470;53.206;-6.106;2023-01-19T04:59:01;0.57;;;0.50;;
58689;SDS011;44470;53.206;-6.106;2023-01-19T05:01:27;0.50;;;0.30;;
58689;SDS011;44470;53.206;-6.106;2023-01-19T05:03:52;0.55;;;0.38;;
58689;SDS011;44470;53.206;-6.106;2023-01-19T05:06:18;0.65;;;0.43;;
58689;SDS011;44470;53.206;-6.106;2023-01-19T05:08:43;0.47;;;0.40;;
58689;SDS011;44470;53.206;-6.106;2023-01-19T05:11:09;0.63;;;0.30;;
58689;SDS011;44470;53.206;-6.106;2023-01-19T05:13:34;1.17;;;0.40;;
58689;SDS011;44470;53.206;-6.106;2023-01-19T05:16:00;0.70;;;0.70;;
58689;SDS011;44470;53.206;-6.106;2023-01-19T05:18:26;0.43;;;0.22;;
58689;SDS011;44470;53.206;-6.106;2023-01-19T05:20:51;0.63;;;0.63;;
58689;SDS011;44470;53.206;-6.106;2023-01-19T05:23:17;0.50;;;0.40;;
58689;SDS011;44470;53.206;-6.106;2023-01-19T05:25:42;0.40;;;0.40;;
58689;SDS011;44470;53.206;-6.106;2023-01-19T05:28:09;0.45;;;0.45;;
58689;SDS011;44470;53.206;-6.106;2023-01-19T05:30:34;1.67;;;0.28;;
58689;SDS011;44470;53.206;-6.106;2023-01-19T05:33:01;0.65;;;0.43;;
58689;SDS011;44470;53.206;-6.106;2023-01-19T05:35:26;0.73;;;0.30;;
58689;SDS011;44470;53.206;-6.106;2023-01-19T05:37:52;1.23;;;0.40;;
58689;SDS011;44470;53.206;-6.106;2023-01-19T05:40:18;0.30;;;0.30;;
58689;SDS011;44470;53.206;-6.106;2023-01-19T05:42:43;0.32;;;0.32;;
58689;SDS011;44470;53.206;-6.106;2023-01-19T05:45:09;1.10;;;0.20;;
58689;SDS011;44470;53.206;-6.106;2023-01-19T05:47:35;0.30;;;0.20;;
58689;SDS011;44470;53.206;-6.106;2023-01-19T05:50:01;0.55;;;0.55;;
58689;SDS011;44470;53.206;-6.106;2023-01-19T05:52:27;0.55;;;0.25;;
58689;SDS011;44470;53.206;-6.106;2023-01-19T05:54:52;0.40;;;0.30;;
58689;SDS011;44470;53.206;-6.106;2023-01-19T05:57:19;0.52;;;0.30;;
58689;SDS011;44470;53.206;-6.106;2023-01-19T05:59:45;0.50;;;0.40;;
58689;SDS011;44470;53.206;-6.106;2023-01-19T06:02:10;0.65;;;0.30;;
58689;SDS011;44470;53.206;-6.106;2023-01-19T06:04:36;0.52;;;0.35;;
58689;SDS011;44470;53.206;-6.106;2023-01-19T06:07:01;0.70;;;0.68;;
58689;SDS011;44470;53.206;-6.106;2023-01-19T06:09:27;0.55;;;0.30;;
58689;SDS011;44470;53.206;-6.106;2023-01-19T06:11:53;1.15;;;0.50;;
58689;SDS011;44470;53.206;-6.106;2023-01-19T06:14:20;0.40;;;0.40;;
58689;SDS011;44470;53.206;-6.106;2023-01-19T06:16:46;0.63;;;0.38;;
58689;SDS011;44470;53.206;-6.106;2023-01-19T06:19:11;0.65;;;0.50;;
58689;SDS011;44470;53.206;-6.106;2023-01-19T06:21:37;0.65;;;0.50;;
58689;SDS011;44470;53.206;-6.106;2023-01-19T06:24:03;0.55;;;0.50;;
58689;SDS011;44470;53.206;-6.106;2023-01-19T06:26:29;0.75;;;0.40;;
58689;SDS011;44470;53.206;-6.106;2023-01-19T06:28:54;0.60;;;0.38;;
58689;SDS011;44470;53.206;-6.106;2023-01-19T06:31:20;2.33;;;0.50;;
58689;SDS011;44470;53.206;-6.106;2023-01-19T06:33:45;0.63;;;0.22;;
58689;SDS011;44470;53.206;-6.106;2023-01-19T06:36:11;0.47;;;0.47;;
58689;SDS011;44470;53.206;-6.106;2023-01-19T06:38:37;0.65;;;0.43;;
58689;SDS011;44470;53.206;-6.106;2023-01-19T06:41:02;0.75;;;0.40;;
58689;SDS011;44470;53.206;-6.106;2023-01-19T06:43:28;0.88;;;0.35;;
58689;SDS011;44470;53.206;-6.106;2023-01-19T06:45:55;1.02;;;0.60;;
58689;SDS011;44470;53.206;-6.106;2023-01-19T06:48:21;0.20;;;0.20;;
58689;SDS011;44470;53.206;-6.106;2023-01-19T06:50:47;0.32;;;0.32;;
58689;SDS011;44470;53.206;-6.106;2023-01-19T06:53:14;0.30;;;0.30;;
58689;SDS011;44470;53.206;-6.106;2023-01-19T06:55:44;0.38;;;0.35;;
58689;SDS011;44470;53.206;-6.106;2023-01-19T06:58:10;0.30;;;0.30;;
58689;SDS011;44470;53.206;-6.106;2023-01-19T07:00:35;1.08;;;0.43;;
58689;SDS011;44470;53.206;-6.106;2023-01-19T07:03:01;0.30;;;0.30;;
58689;SDS011;44470;53.206;-6.106;2023-01-19T07:05:27;0.80;;;0.50;;
58689;SDS011;44470;53.206;-6.106;2023-01-19T07:07:53;0.80;;;0.45;;
58689;SDS011;44470;53.206;-6.106;2023-01-19T07:10:20;0.30;;;0.30;;
58689;SDS011;44470;53.206;-6.106;2023-01-19T07:12:46;0.60;;;0.60;;
58689;SDS011;44470;53.206;-6.106;2023-01-19T07:15:12;0.40;;;0.40;;
58689;SDS011;44470;53.206;-6.106;2023-01-19T07:17:42;0.38;;;0.30;;
58689;SDS011;44470;53.206;-6.106;2023-01-19T07:20:08;0.63;;;0.38;;
58689;SDS011;44470;53.206;-6.106;2023-01-19T07:22:37;1.00;;;0.50;;
58689;SDS011;44470;53.206;-6.106;2023-01-19T07:25:03;2.15;;;0.40;;
58689;SDS011;44470;53.206;-6.106;2023-01-19T07:27:29;0.30;;;0.30;;
58689;SDS011;44470;53.206;-6.106;2023-01-19T07:29:55;0.82;;;0.40;;
58689;SDS011;44470;53.206;-6.106;2023-01-19T07:32:20;0.93;;;0.40;;
58689;SDS011;44470;53.206;-6.106;2023-01-19T07:34:46;0.38;;;0.38;;
58689;SDS011;44470;53.206;-6.106;2023-01-19T07:37:11;0.52;;;0.38;;
58689;SDS011;44470;53.206;-6.106;2023-01-19T07:39:37;0.57;;;0.40;;
58689;SDS011;44470;53.206;-6.106;2023-01-19T07:42:03;0.35;;;0.35;;
58689;SDS011;44470;53.206;-6.106;2023-01-19T07:44:30;0.30;;;0.25;;
58689;SDS011;44470;53.206;-6.106;2023-01-19T07:46:55;0.35;;;0.20;;
58689;SDS011;44470;53.206;-6.106;2023-01-19T07:49:21;0.68;;;0.47;;
58689;SDS011;44470;53.206;-6.106;2023-01-19T07:51:46;0.63;;;0.25;;
58689;SDS011;44470;53.206;-6.106;2023-01-19T07:54:11;0.80;;;0.47;;
58689;SDS011;44470;53.206;-6.106;2023-01-19T07:56:37;0.43;;;0.40;;
58689;SDS011;44470;53.206;-6.106;2023-01-19T07:59:02;1.33;;;0.57;;
58689;SDS011;44470;53.206;-6.106;2023-01-19T08:01:28;0.30;;;0.30;;
58689;SDS011;44470;53.206;-6.106;2023-01-19T08:03:53;0.50;;;0.47;;
58689;SDS011;44470;53.206;-6.106;2023-01-19T08:06:23;0.45;;;0.40;;
58689;SDS011;44470;53.206;-6.106;2023-01-19T08:08:53;0.47;;;0.47;;
58689;SDS011;44470;53.206;-6.106;2023-01-19T08:11:19;0.65;;;0.47;;
58689;SDS011;44470;53.206;-6.106;2023-01-19T08:13:44;0.40;;;0.40;;
58689;SDS011;44470;53.206;-6.106;2023-01-19T08:16:10;1.35;;;0.57;;
58689;SDS011;44470;53.206;-6.106;2023-01-19T08:18:35;0.38;;;0.32;;
58689;SDS011;44470;53.206;-6.106;2023-01-19T08:21:01;1.20;;;0.63;;
58689;SDS011;44470;53.206;-6.106;2023-01-19T08:23:27;0.73;;;0.20;;
58689;SDS011;44470;53.206;-6.106;2023-01-19T08:25:52;0.80;;;0.30;;
58689;SDS011;44470;53.206;-6.106;2023-01-19T08:28:19;0.70;;;0.60;;
58689;SDS011;44470;53.206;-6.106;2023-01-19T08:30:45;0.73;;;0.40;;
58689;SDS011;44470;53.206;-6.106;2023-01-19T08:33:17;0.52;;;0.40;;
58689;SDS011;44470;53.206;-6.106;2023-01-19T08:35:46;0.77;;;0.50;;
58689;SDS011;44470;53.206;-6.106;2023-01-19T08:38:13;1.23;;;0.25;;
58689;SDS011;44470;53.206;-6.106;2023-01-19T08:40:39;0.65;;;0.60;;
58689;SDS011;44470;53.206;-6.106;2023-01-19T08:43:07;1.00;;;0.40;;
58689;SDS011;44470;53.206;-6.106;2023-01-19T08:45:38;0.50;;;0.30;;
58689;SDS011;44470;53.206;-6.106;2023-01-19T08:48:05;0.47;;;0.45;;
58689;SDS011;44470;53.206;-6.106;2023-01-19T08:50:31;0.50;;;0.45;;
58689;SDS011;44470;53.206;-6.106;2023-01-19T08:52:58;1.45;;;0.73;;
58689;SDS011;44470;53.206;-6.106;2023-01-19T08:55:24;1.10;;;0.65;;
58689;SDS011;44470;53.206;-6.106;2023-01-19T08:57:53;0.55;;;0.50;;
58689;SDS011;44470;53.206;-6.106;2023-01-19T09:00:23;1.30;;;0.63;;
58689;SDS011;44470;53.206;-6.106;2023-01-19T09:02:49;1.17;;;0.40;;
58689;SDS011;44470;53.206;-6.106;2023-01-19T09:05:15;0.63;;;0.63;;
58689;SDS011;44470;53.206;-6.106;2023-01-19T09:07:45;1.17;;;0.60;;
58689;SDS011;44470;53.206;-6.106;2023-01-19T09:10:15;0.47;;;0.47;;
58689;SDS011;44470;53.206;-6.106;2023-01-19T09:12:40;1.75;;;0.60;;
58689;SDS011;44470;53.206;-6.106;2023-01-19T09:15:07;1.33;;;0.45;;
58689;SDS011;44470;53.206;-6.106;2023-01-19T09:17:35;0.60;;;0.20;;
58689;SDS011;44470;53.206;-6.106;2023-01-19T09:20:00;0.55;;;0.30;;
58689;SDS011;44470;53.206;-6.106;2023-01-19T09:22:26;1.30;;;0.30;;
58689;SDS011;44470;53.206;-6.106;2023-01-19T09:24:52;0.30;;;0.30;;
58689;SDS011;44470;53.206;-6.106;2023-01-19T09:27:17;0.40;;;0.40;;
58689;SDS011;44470;53.206;-6.106;2023-01-19T09:29:43;0.40;;;0.40;;
58689;SDS011;44470;53.206;-6.106;2023-01-19T09:32:16;1.63;;;0.70;;
58689;SDS011;44470;53.206;-6.106;2023-01-19T09:34:43;0.65;;;0.50;;
58689;SDS011;44470;53.206;-6.106;2023-01-19T09:37:09;1.13;;;0.60;;
58689;SDS011;44470;53.206;-6.106;2023-01-19T09:39:34;0.85;;;0.40;;
58689;SDS011;44470;53.206;-6.106;2023-01-19T09:42:03;0.65;;;0.50;;
58689;SDS011;44470;53.206;-6.106;2023-01-19T09:44:31;0.73;;;0.52;;
58689;SDS011;44470;53.206;-6.106;2023-01-19T09:47:02;0.40;;;0.40;;
58689;SDS011;44470;53.206;-6.106;2023-01-19T09:49:39;0.57;;;0.50;;
58689;SDS011;44470;53.206;-6.106;2023-01-19T09:52:12;1.52;;;0.52;;
58689;SDS011;44470;53.206;-6.106;2023-01-19T09:54:40;0.50;;;0.40;;
58689;SDS011;44470;53.206;-6.106;2023-01-19T09:57:14;0.40;;;0.20;;
58689;SDS011;44470;53.206;-6.106;2023-01-19T09:59:40;0.45;;;0.45;;
58689;SDS011;44470;53.206;-6.106;2023-01-19T10:15:27;0.88;;;0.60;;
58689;SDS011;44470;53.206;-6.106;2023-01-19T10:18:13;0.47;;;0.30;;
58689;SDS011;44470;53.206;-6.106;2023-01-19T10:20:54;0.57;;;0.52;;
58689;SDS011;44470;53.206;-6.106;2023-01-19T10:26:26;0.82;;;0.57;;
58689;SDS011;44470;53.206;-6.106;2023-01-19T10:29:01;0.80;;;0.80;;
58689;SDS011;44470;53.206;-6.106;2023-01-19T10:31:33;0.65;;;0.55;;
58689;SDS011;44470;53.206;-6.106;2023-01-19T10:34:02;0.57;;;0.47;;
58689;SDS011;44470;53.206;-6.106;2023-01-19T10:36:30;0.30;;;0.30;;
58689;SDS011;44470;53.206;-6.106;2023-01-19T10:38:59;1.30;;;0.60;;
58689;SDS011;44470;53.206;-6.106;2023-01-19T10:41:25;0.57;;;0.55;;
58689;SDS011;44470;53.206;-6.106;2023-01-19T10:44:14;0.70;;;0.70;;
58689;SDS011;44470;53.206;-6.106;2023-01-19T10:46:50;0.63;;;0.50;;
58689;SDS011;44470;53.206;-6.106;2023-01-19T10:49:28;0.47;;;0.45;;
58689;SDS011;44470;53.206;-6.106;2023-01-19T10:52:01;0.75;;;0.50;;
58689;SDS011;44470;53.206;-6.106;2023-01-19T10:54:29;0.38;;;0.38;;
58689;SDS011;44470;53.206;-6.106;2023-01-19T10:56:57;1.55;;;0.43;;
58689;SDS011;44470;53.206;-6.106;2023-01-19T11:04:54;2.15;;;0.50;;
58689;SDS011;44470;53.206;-6.106;2023-01-19T11:07:31;0.45;;;0.43;;
58689;SDS011;44470;53.206;-6.106;2023-01-19T11:18:42;0.50;;;0.38;;
58689;SDS011;44470;53.206;-6.106;2023-01-19T11:21:09;0.50;;;0.50;;
58689;SDS011;44470;53.206;-6.106;2023-01-19T11:23:45;0.50;;;0.35;;
58689;SDS011;44470;53.206;-6.106;2023-01-19T11:26:25;0.60;;;0.43;;
58689;SDS011;44470;53.206;-6.106;2023-01-19T11:28:52;0.70;;;0.60;;
58689;SDS011;44470;53.206;-6.106;2023-01-19T11:33:52;0.57;;;0.57;;
58689;SDS011;44470;53.206;-6.106;2023-01-19T11:36:20;0.50;;;0.35;;
58689;SDS011;44470;53.206;-6.106;2023-01-19T11:38:49;0.90;;;0.38;;
58689;SDS011;44470;53.206;-6.106;2023-01-19T11:41:20;0.60;;;0.43;;
58689;SDS011;44470;53.206;-6.106;2023-01-19T11:44:12;0.40;;;0.30;;
58689;SDS011;44470;53.206;-6.106;2023-01-19T11:46:43;1.08;;;0.43;;
58689;SDS011;44470;53.206;-6.106;2023-01-19T11:54:48;0.57;;;0.50;;
58689;SDS011;44470;53.206;-6.106;2023-01-19T11:57:20;0.80;;;0.35;;
58689;SDS011;44470;53.206;-6.106;2023-01-19T11:59:46;0.52;;;0.52;;
58689;SDS011;44470;53.206;-6.106;2023-01-19T12:02:55;0.70;;;0.40;;
58689;SDS011;44470;53.206;-6.106;2023-01-19T12:05:11;0.50;;;0.50;;
58689;SDS011;44470;53.206;-6.106;2023-01-19T12:07:41;0.50;;;0.50;;
58689;SDS011;44470;53.206;-6.106;2023-01-19T12:10:28;0.47;;;0.38;;
58689;SDS011;44470;53.206;-6.106;2023-01-19T12:12:57;0.40;;;0.40;;
58689;SDS011;44470;53.206;-6.106;2023-01-19T12:15:40;0.60;;;0.60;;
58689;SDS011;44470;53.206;-6.106;2023-01-19T12:18:13;0.52;;;0.50;;
58689;SDS011;44470;53.206;-6.106;2023-01-19T12:20:51;0.75;;;0.30;;
58689;SDS011;44470;53.206;-6.106;2023-01-19T12:28:29;0.30;;;0.30;;
58689;SDS011;44470;53.206;-6.106;2023-01-19T12:30:58;0.70;;;0.52;;
58689;SDS011;44470;53.206;-6.106;2023-01-19T12:35:56;0.75;;;0.50;;
58689;SDS011;44470;53.206;-6.106;2023-01-19T12:38:49;0.43;;;0.43;;
58689;SDS011;44470;53.206;-6.106;2023-01-19T12:41:29;0.93;;;0.45;;
58689;SDS011;44470;53.206;-6.106;2023-01-19T12:46:36;0.32;;;0.32;;
58689;SDS011;44470;53.206;-6.106;2023-01-19T12:51:51;0.35;;;0.35;;
58689;SDS011;44470;53.206;-6.106;2023-01-19T12:54:29;0.30;;;0.30;;
58689;SDS011;44470;53.206;-6.106;2023-01-19T12:57:01;0.75;;;0.45;;
58689;SDS011;44470;53.206;-6.106;2023-01-19T12:59:39;0.93;;;0.65;;
58689;SDS011;44470;53.206;-6.106;2023-01-19T13:04:42;0.55;;;0.55;;
58689;SDS011;44470;53.206;-6.106;2023-01-19T13:13:23;0.30;;;0.30;;
58689;SDS011;44470;53.206;-6.106;2023-01-19T13:15:51;0.43;;;0.43;;
58689;SDS011;44470;53.206;-6.106;2023-01-19T13:18:30;1.00;;;0.30;;
58689;SDS011;44470;53.206;-6.106;2023-01-19T13:21:03;0.55;;;0.40;;
58689;SDS011;44470;53.206;-6.106;2023-01-19T13:26:14;1.92;;;0.50;;
58689;SDS011;44470;53.206;-6.106;2023-01-19T13:28:44;1.63;;;0.68;;
58689;SDS011;44470;53.206;-6.106;2023-01-19T13:31:13;1.58;;;0.60;;
58689;SDS011;44470;53.206;-6.106;2023-01-19T13:33:43;0.65;;;0.50;;
58689;SDS011;44470;53.206;-6.106;2023-01-19T13:36:24;0.50;;;0.50;;
58689;SDS011;44470;53.206;-6.106;2023-01-19T13:38:54;1.15;;;0.60;;
58689;SDS011;44470;53.206;-6.106;2023-01-19T13:41:22;0.50;;;0.50;;
58689;SDS011;44470;53.206;-6.106;2023-01-19T13:43:54;1.10;;;0.57;;
58689;SDS011;44470;53.206;-6.106;2023-01-19T13:46:26;0.50;;;0.40;;
58689;SDS011;44470;53.206;-6.106;2023-01-19T13:48:54;0.45;;;0.43;;
58689;SDS011;44470;53.206;-6.106;2023-01-19T13:51:22;1.05;;;0.50;;
58689;SDS011;44470;53.206;-6.106;2023-01-19T13:53:55;0.32;;;0.32;;
58689;SDS011;44470;53.206;-6.106;2023-01-19T13:56:22;0.98;;;0.70;;
58689;SDS011;44470;53.206;-6.106;2023-01-19T13:59:23;0.90;;;0.90;;
58689;SDS011;44470;53.206;-6.106;2023-01-19T14:01:42;0.50;;;0.45;;
58689;SDS011;44470;53.206;-6.106;2023-01-19T14:04:26;0.40;;;0.40;;
58689;SDS011;44470;53.206;-6.106;2023-01-19T14:06:56;0.50;;;0.50;;
58689;SDS011;44470;53.206;-6.106;2023-01-19T14:09:24;0.45;;;0.45;;
58689;SDS011;44470;53.206;-6.106;2023-01-19T14:14:42;0.83;;;0.70;;
58689;SDS011;44470;53.206;-6.106;2023-01-19T14:17:16;0.63;;;0.60;;
58689;SDS011;44470;53.206;-6.106;2023-01-19T14:19:50;0.80;;;0.55;;
58689;SDS011;44470;53.206;-6.106;2023-01-19T14:22:20;0.73;;;0.68;;
58689;SDS011;44470;53.206;-6.106;2023-01-19T14:24:45;0.73;;;0.73;;
58689;SDS011;44470;53.206;-6.106;2023-01-19T14:27:18;0.80;;;0.80;;
58689;SDS011;44470;53.206;-6.106;2023-01-19T14:29:49;1.13;;;0.60;;
58689;SDS011;44470;53.206;-6.106;2023-01-19T14:32:23;0.50;;;0.50;;
58689;SDS011;44470;53.206;-6.106;2023-01-19T14:35:11;0.95;;;0.60;;
58689;SDS011;44470;53.206;-6.106;2023-01-19T14:37:45;0.65;;;0.65;;
58689;SDS011;44470;53.206;-6.106;2023-01-19T14:40:22;0.73;;;0.73;;
58689;SDS011;44470;53.206;-6.106;2023-01-19T14:48:17;0.85;;;0.85;;
58689;SDS011;44470;53.206;-6.106;2023-01-19T14:50:44;0.63;;;0.63;;
58689;SDS011;44470;53.206;-6.106;2023-01-19T14:53:18;0.90;;;0.90;;
58689;SDS011;44470;53.206;-6.106;2023-01-19T14:58:17;1.08;;;0.98;;
58689;SDS011;44470;53.206;-6.106;2023-01-19T15:00:44;0.82;;;0.80;;
58689;SDS011;44470;53.206;-6.106;2023-01-19T15:03:10;0.60;;;0.50;;
58689;SDS011;44470;53.206;-6.106;2023-01-19T15:05:38;0.90;;;0.90;;
58689;SDS011;44470;53.206;-6.106;2023-01-19T15:08:05;0.80;;;0.80;;
58689;SDS011;44470;53.206;-6.106;2023-01-19T15:10:32;1.35;;;0.77;;
58689;SDS011;44470;53.206;-6.106;2023-01-19T15:13:00;1.15;;;0.80;;
58689;SDS011;44470;53.206;-6.106;2023-01-19T15:15:28;1.00;;;1.00;;
58689;SDS011;44470;53.206;-6.106;2023-01-19T15:17:55;0.82;;;0.82;;
58689;SDS011;44470;53.206;-6.106;2023-01-19T15:20:22;1.02;;;1.00;;
58689;SDS011;44470;53.206;-6.106;2023-01-19T15:22:48;0.80;;;0.80;;
58689;SDS011;44470;53.206;-6.106;2023-01-19T15:25:15;1.05;;;1.05;;
58689;SDS011;44470;53.206;-6.106;2023-01-19T15:27:42;0.95;;;0.95;;
58689;SDS011;44470;53.206;-6.106;2023-01-19T15:30:16;1.02;;;1.02;;
58689;SDS011;44470;53.206;-6.106;2023-01-19T15:32:44;1.17;;;1.00;;
58689;SDS011;44470;53.206;-6.106;2023-01-19T15:35:17;1.15;;;0.80;;
58689;SDS011;44470;53.206;-6.106;2023-01-19T15:37:46;1.42;;;1.33;;
58689;SDS011;44470;53.206;-6.106;2023-01-19T15:40:13;1.35;;;0.90;;
58689;SDS011;44470;53.206;-6.106;2023-01-19T15:42:39;1.08;;;0.77;;
58689;SDS011;44470;53.206;-6.106;2023-01-19T15:48:05;0.65;;;0.65;;
58689;SDS011;44470;53.206;-6.106;2023-01-19T15:50:33;0.80;;;0.80;;
58689;SDS011;44470;53.206;-6.106;2023-01-19T15:53:01;1.10;;;1.00;;
58689;SDS011;44470;53.206;-6.106;2023-01-19T15:55:27;1.38;;;1.10;;
58689;SDS011;44470;53.206;-6.106;2023-01-19T15:57:52;1.15;;;0.95;;
58689;SDS011;44470;53.206;-6.106;2023-01-19T16:00:19;1.13;;;1.02;;
58689;SDS011;44470;53.206;-6.106;2023-01-19T16:02:44;1.13;;;1.02;;
58689;SDS011;44470;53.206;-6.106;2023-01-19T16:05:10;1.33;;;1.02;;
58689;SDS011;44470;53.206;-6.106;2023-01-19T16:07:35;0.98;;;0.75;;
58689;SDS011;44470;53.206;-6.106;2023-01-19T16:10:01;0.90;;;0.90;;
58689;SDS011;44470;53.206;-6.106;2023-01-19T16:12:29;1.13;;;1.02;;
58689;SDS011;44470;53.206;-6.106;2023-01-19T16:14:55;1.15;;;1.15;;
58689;SDS011;44470;53.206;-6.106;2023-01-19T16:17:20;0.93;;;0.93;;
58689;SDS011;44470;53.206;-6.106;2023-01-19T16:19:46;1.10;;;1.10;;